Logo AVAMET
Benvolgut visitant, si us plau, ingressa Recuperar contrasenya

Bunyol Camp de Futbol

Dades diàries. Acumulats / Últims 30 dies disponibles

Data Temperatura (°C) Humitat rel. (%) Pressió rel. (hPa) Vent (km/h) Precipitació
Mínima Mitjana Màxima Amplitud
tèrmica
Mínima Mitjana Màxima Mínima Mitjana Màxima Predom. Mitjana Ràfega
màxima
Total
(mm)
Índex-n
Mínima Mitjana Màxima Mínima Mitjana Màxima n
0 a 1
P0 max
mm 5'
Dades mensuals acumulades fins l'últim dia disponible
09/2019 13,3 17,8 20,4 21,4 18,4 26,2 34,2 20,9 7 81 100 977 1.021 1.029   6,5 44,2 134,5
Dades anuals acumulades fins l'últim dia disponible
2019 1,1 12,5 25,0 17,4 10,5 23,4 38,4 37,3 7 65 100 969 1.019 1.035   8,5 87,0 281,2
Últims 30 dies disponibles
17-09-2019 18,2     22,5     28,0 9,8 45 80 100 1.017 1.019 1.021 S 5,9 41,1 0,0
16-09-2019 19,7     22,1     27,7 8,0 69 93 100 1.020 1.021 1.023 SE 4,1 28,1 0,0
15-09-2019 19,2     20,9     23,5 4,3 87 95 100 1.021 1.022 1.025 ENE 6,8 21,3 0,0
14-09-2019 15,4     19,7     23,2 7,8 64 88 100 1.023 1.025 1.028 E 8,5 35,2 10,3
13-09-2019 16,0     18,7     20,3 4,3 63 85 100 1.024 1.026 1.028 ENE 6,5 41,3 51,1 0,48 3,30
12-09-2019 15,5     18,9     21,3 5,8 66 91 100 1.024 1.026 1.029 NE 8,9 32,0 41,8 0,76 16,80
11-09-2019 13,3     16,0     18,4 5,1 48 86 100 1.015 1.020 1.025 SSO 7,0 36,6 24,0 0,40 2,10
10-09-2019 16,2     21,4     27,0 10,8 7 27 50 1.011 1.013 1.016 OSO 10,3 39,6 0,0
09-09-2019 16,7     24,0     32,3 15,6 7 59 97 1.013 1.017 1.020 SO 6,7 44,2 0,0
08-09-2019 17,3     21,4     26,9 9,6 55 85 100 1.018 1.020 1.022 SSE 6,5 34,6 0,0
07-09-2019 18,2     20,3     23,6 5,4 75 94 100 1.020 1.022 1.023 NE 6,4 37,4 0,0
06-09-2019 19,0     21,1     25,0 6,0 57 82 100 978 1.021 1.023 E 5,7 28,3 0,0
05-09-2019 20,0     22,7     27,1 7,1 60 86 100 1.019 1.020 1.021 ESE 5,7 35,5 0,0
04-09-2019 18,9     23,8     30,0 11,1 63 88 100 1.019 1.021 1.023 SE 5,4 23,3 0,0
03-09-2019 19,9     23,0     29,4 9,5 66 94 100 1.021 1.023 1.024 SSE 5,0 37,4 0,0
02-09-2019 18,4     22,2     27,1 8,7 74 91 100 977 1.020 1.023 SSE 5,1 27,0 7,3
01-09-2019 20,4     25,9     34,2 13,8 33 60 75 1.015 1.017 1.018 SSE 6,4 42,4 0,0
31-08-2019 19,5     25,9     32,9 13,4 32 57 80 1.017 1.019 1.022 S 5,9 28,7 0,0
30-08-2019 19,8     25,2     32,4 12,6 43 66 83 1.020 1.022 1.023 S 5,6 31,3 0,0
29-08-2019 18,8     24,4     32,4 13,6 35 63 81 1.021 1.021 1.023 S 6,2 30,9 0,0
28-08-2019 17,5     23,2     29,9 12,4 46 70 94 1.019 1.020 1.021 S 7,7 28,3 0,0
27-08-2019 16,2     20,7     27,7 11,5 57 86 100 974 1.018 1.020 S 5,7 43,1 15,7 0,49 5,40
26-08-2019 20,0     22,4     25,5 5,5 75 94 100 1.017 1.019 1.021 E 7,1 24,8 0,0
25-08-2019 17,6     23,6     29,8 12,2 38 70 94 1.019 1.020 1.021 S 7,1 40,7 0,0
24-08-2019 17,3     23,5     30,0 12,7 38 59 86 1.020 1.021 1.022 SSE 6,1 28,3 0,0
23-08-2019 17,0     23,6     31,0 14,0 24 59 90 1.021 1.022 1.024 S 6,2 45,0 0,0
22-08-2019 16,2     22,7     29,4 13,2 43 72 100 1.021 1.022 1.023 SSE 7,0 31,6 0,0
21-08-2019 19,4     21,2     23,3 3,9 83 95 100 1.021 1.023 1.024 E 5,4 27,8 1,0
20-08-2019 21,6     23,1     26,5 4,9 74 91 100 1.018 1.020 1.023 NE 9,5 33,5 0,0
19-08-2019 21,2     24,6     29,6 8,4 72 91 100 1.015 1.018 1.019 SE 7,3 22,9 0,0
Últims 13 mesos disponibles
08/2019 16,2 20,0 25,0 24,9 23,3 31,4 38,4 22,2 26 73 95 1.014 1.019 1.023 SE 7,0 45,0 16,7
07/2019 18,5 20,3 23,1 25,6 24,9 31,5 36,9 18,4 37 65 92 1.010 1.017 1.024 SSE 8,4 52,9 3,0
06/2019 9,7 16,0 20,8 21,6 20,6 27,7 37,2 27,5 25 61 92 1.011 1.018 1.023 SSE 7,9 69,4 1,0
05/2019 6,3 11,9 15,1 16,8 17,9 22,8 27,7 21,4 46 69 96 1.009 1.017 1.025 S 7,0 60,3 9,0
04/2019 6,4 9,4 11,7 13,3 12,2 18,6 27,7 21,3 33 72 100 1.002 1.014 1.026 SO 9,5 64,4 117,0
03/2019 4,3 8,0 12,8 13,2 10,5 19,6 26,0 21,7 27 55 99 1.012 1.023 1.030 S 8,1 67,9
02/2019 2,5 6,0 10,7 11,1 10,8 17,6 26,1 23,6 25 62 92 997 1.025 1.033 SSO 9,1 87,0
01/2019 1,1 5,2 10,0 9,5 10,8 15,9 21,9 20,8 35 58 81 1.004 1.019 1.030 OSO 12,4 85,8
12/2018 4,0 7,3 11,5 11,6 12,5 17,8 25,1 21,1 36 72 95 1.009 1.025 1.030 OSO 11,8 70,5 3,0
11/2018 5,7 9,7 14,1 12,7 12,0 16,8 23,1 17,4 48 81 100 1.004 1.016 1.025 OSO 9,0 69,7 151,8
10/2018 4,6 12,9 17,1 16,7 10,9 21,6 30,9 26,3 43 79 100 1.002 1.016 1.024 7,6 67,5 72,7
09/2018 14,6 18,5 21,4 22,3 21,0 27,6 32,8 18,2 54 86 99 1.015 1.021 1.030 5,5 66,8 31,7
08/2018 17,9 20,9 23,6 25,2 25,4 31,4 36,1 18,2 46 75 92 1.016 1.019 1.024 6,5 51,8 20,7
Tots els anys disponibles
2017 -1,4 9,5 24,4 12,3 0,6 15,6 29,4 30,8 19 60 97 501 958 1.015 50,0
2016 0,9 8,6 27,3 13,1 7,7 17,5 38,1 37,2 20 58 93 981 1.009 1.027 99,0
2015 5,7 15,4 26,9 20,4 7,1 25,4 41,2 35,5 2 63 98 -49 957 1.066 71,0
2014 3,2 13,6 25,4 18,6 8,3 23,6 38,7 35,5 19 58 94 976 1.007 1.019 105,0
Temperatura (°C)
Humitat relativa (%)
Velocitat del vent i ràfega màxima (km/h)
Direcció del vent (°)
Pressió (hPa)
Precipitació (mm)
Nota sobre les dades: s'avisa a l'usuari de la provisionalitat i no oficialitat d'aquestes dades
Logo AVAMET blanc
Web allotjada a Sollutia
Llicència de Creative CommonsLa web d'AVAMET i els seus continguts estan subjectes a una llicència de
Reconeixement - No Comercial - Compartir igual
Properes estacions: Altea - Club Nàutic d'Altea (Soci),    - - - - -      Últimes estacions: Llíria - Bodegas del Campo (Soci), La Pobla Tornesa (Soci), Quartell (Soci), Alzira - Est (Soci/Inforatge), San Miguel de las Salinas (MeteOrihuela), Segorbe (Inforatge), Alcalà de Xivert - Alcossebre (Inforatge), Moixent - la Foia (Soci), Callosa d'en Sarrià - Centre (Soci) - - -